Time;durP1;ratioP1;P1;durP2;ratioP2;P2;SDS_P1;SDS_P2;PMS_P1;PMS_P2;Temp;Humidity;BMP_temperature;BMP_pressure;BME280_temperature;BME280_humidity;BME280_pressure;Samples;Min_cycle;Max_cycle;Signal;HPM_P1;HPM_P2
2022/05/17 00:02:10;;;;;;;6.38;2.38;;;;;;;;;;5102030;28;20520;-68
2022/05/17 00:04:37;;;;;;;2.80;2.60;;;;;;;;;;5102357;28;20413;-68
2022/05/17 00:07:05;;;;;;;5.05;2.85;;;;;;;;;;5102045;28;20199;-68
2022/05/17 00:09:31;;;;;;;5.70;2.30;;;;;;;;;;5102202;28;20408;-68
2022/05/17 00:11:59;;;;;;;3.08;2.60;;;;;;;;;;5102184;28;20196;-68
2022/05/17 00:14:26;;;;;;;4.45;2.55;;;;;;;;;;5104671;28;20310;-68
2022/05/17 00:16:53;;;;;;;2.35;2.15;;;;;;;;;;5105734;28;20216;-68
2022/05/17 00:19:20;;;;;;;4.45;2.55;;;;;;;;;;5106128;28;20207;-68
2022/05/17 00:21:47;;;;;;;2.85;2.60;;;;;;;;;;5106121;28;20444;-68
2022/05/17 00:24:15;;;;;;;3.80;2.78;;;;;;;;;;5105931;28;20196;-68
2022/05/17 00:26:41;;;;;;;3.40;2.70;;;;;;;;;;5105685;28;20391;-68
2022/05/17 00:29:08;;;;;;;4.05;3.03;;;;;;;;;;5105635;28;20195;-68
2022/05/17 00:31:34;;;;;;;2.50;2.33;;;;;;;;;;5105574;28;20200;-68
2022/05/17 00:34:02;;;;;;;3.28;3.08;;;;;;;;;;5105785;28;20257;-68
2022/05/17 00:36:29;;;;;;;2.90;2.70;;;;;;;;;;5105514;28;20406;-68
2022/05/17 00:38:55;;;;;;;5.40;2.75;;;;;;;;;;5105642;28;20203;-68
2022/05/17 00:41:23;;;;;;;5.80;2.80;;;;;;;;;;5105662;28;20242;-68
2022/05/17 00:46:39;;;;;;;2.65;2.45;;;;;;;;;;5105300;28;20226;-68
2022/05/17 00:49:06;;;;;;;3.10;2.80;;;;;;;;;;5105424;28;20196;-68
2022/05/17 00:51:32;;;;;;;3.13;2.75;;;;;;;;;;5105342;28;20196;-68
2022/05/17 00:54:02;;;;;;;2.97;2.67;;;;;;;;;;5105294;28;20196;-68
2022/05/17 00:56:30;;;;;;;3.05;2.50;;;;;;;;;;5104933;28;20227;-68
2022/05/17 00:58:58;;;;;;;6.70;2.80;;;;;;;;;;5105289;28;20200;-68
2022/05/17 01:01:26;;;;;;;6.88;3.20;;;;;;;;;;5105344;28;20409;-68
2022/05/17 01:03:55;;;;;;;5.45;2.75;;;;;;;;;;5104939;28;20210;-68
2022/05/17 01:06:21;;;;;;;3.08;2.38;;;;;;;;;;5104902;28;20216;-68
2022/05/17 01:08:47;;;;;;;3.20;2.50;;;;;;;;;;5104947;28;20204;-68
2022/05/17 01:11:14;;;;;;;4.40;2.50;;;;;;;;;;5105012;28;20241;-68
2022/05/17 01:16:26;;;;;;;2.80;2.53;;;;;;;;;;5104532;28;20217;-68
2022/05/17 01:18:53;;;;;;;3.35;3.03;;;;;;;;;;5104934;28;20234;-68
2022/05/17 01:21:20;;;;;;;2.53;2.40;;;;;;;;;;5104775;28;20195;-68
2022/05/17 01:23:47;;;;;;;4.63;2.72;;;;;;;;;;5104052;28;20241;-68
2022/05/17 01:26:16;;;;;;;6.10;3.33;;;;;;;;;;5103333;28;20514;-68
2022/05/17 01:28:43;;;;;;;5.82;2.75;;;;;;;;;;5105070;28;20208;-68
2022/05/17 01:31:09;;;;;;;3.47;3.17;;;;;;;;;;5104487;28;20572;-68
2022/05/17 01:33:37;;;;;;;6.93;2.90;;;;;;;;;;5104705;28;20196;-68
2022/05/17 01:36:05;;;;;;;3.35;2.70;;;;;;;;;;5104241;28;20196;-68
2022/05/17 01:38:32;;;;;;;6.32;3.70;;;;;;;;;;5104449;28;20202;-68
2022/05/17 01:40:59;;;;;;;3.92;2.88;;;;;;;;;;5104481;28;20195;-68
2022/05/17 01:43:25;;;;;;;3.58;3.25;;;;;;;;;;5104205;28;20195;-68
2022/05/17 01:45:52;;;;;;;3.00;2.80;;;;;;;;;;5104245;28;20499;-68
2022/05/17 01:48:18;;;;;;;4.68;3.10;;;;;;;;;;5104220;28;20249;-68
2022/05/17 01:50:44;;;;;;;6.13;3.10;;;;;;;;;;5104385;28;20202;-68
2022/05/17 01:53:10;;;;;;;4.43;3.33;;;;;;;;;;5104015;28;20196;-68
2022/05/17 01:55:38;;;;;;;4.05;3.60;;;;;;;;;;5104225;28;20361;-68
2022/05/17 01:58:05;;;;;;;5.18;3.83;;;;;;;;;;5103763;28;20216;-68
2022/05/17 02:00:31;;;;;;;6.55;3.90;;;;;;;;;;5103880;28;20543;-68
2022/05/17 02:02:57;;;;;;;7.47;4.57;;;;;;;;;;5104067;28;20508;-68
2022/05/17 02:05:25;;;;;;;4.72;4.22;;;;;;;;;;5103952;28;20219;-68
2022/05/17 02:07:51;;;;;;;7.47;4.35;;;;;;;;;;5103694;28;20199;-68
2022/05/17 02:10:18;;;;;;;5.75;4.40;;;;;;;;;;5103849;28;20498;-68
2022/05/17 02:12:46;;;;;;;5.65;4.40;;;;;;;;;;5103702;28;20230;-68
2022/05/17 02:15:13;;;;;;;6.10;4.28;;;;;;;;;;5103961;28;20479;-68
2022/05/17 02:17:39;;;;;;;7.07;4.60;;;;;;;;;;5103316;28;20226;-68
2022/05/17 02:20:07;;;;;;;8.45;4.55;;;;;;;;;;5103751;28;20202;-68
2022/05/17 02:22:34;;;;;;;8.52;4.50;;;;;;;;;;5103612;28;20231;-68
2022/05/17 02:25:00;;;;;;;6.93;4.07;;;;;;;;;;5103457;28;20203;-68
2022/05/17 02:27:26;;;;;;;4.50;4.07;;;;;;;;;;5103074;28;20192;-68
2022/05/17 02:29:55;;;;;;;7.70;4.50;;;;;;;;;;5103637;28;20196;-68
2022/05/17 02:32:21;;;;;;;4.53;4.00;;;;;;;;;;5103279;28;20196;-68
2022/05/17 02:34:48;;;;;;;7.65;4.20;;;;;;;;;;5103547;28;20267;-68
2022/05/17 02:37:15;;;;;;;7.03;4.30;;;;;;;;;;5102847;28;20223;-68
2022/05/17 02:39:41;;;;;;;4.03;3.72;;;;;;;;;;5103249;28;20210;-68
2022/05/17 02:42:09;;;;;;;4.55;3.78;;;;;;;;;;5103114;28;20392;-68
2022/05/17 02:44:35;;;;;;;5.60;3.80;;;;;;;;;;5103364;28;20219;-68
2022/05/17 02:47:03;;;;;;;4.80;3.75;;;;;;;;;;5103060;28;20383;-68
2022/05/17 02:49:29;;;;;;;3.50;3.30;;;;;;;;;;5103173;28;20488;-68
2022/05/17 02:51:55;;;;;;;4.93;3.80;;;;;;;;;;5103109;28;20413;-68
2022/05/17 02:54:22;;;;;;;5.10;3.30;;;;;;;;;;5102967;28;20421;-68
2022/05/17 02:56:48;;;;;;;6.03;3.45;;;;;;;;;;5102585;28;20223;-68
2022/05/17 02:59:18;;;;;;;3.28;2.97;;;;;;;;;;5102848;28;20221;-68
2022/05/17 03:01:44;;;;;;;4.00;3.13;;;;;;;;;;5102885;28;20221;-68
2022/05/17 03:04:13;;;;;;;5.40;3.70;;;;;;;;;;5102736;28;20376;-68
2022/05/17 03:06:39;;;;;;;5.97;3.50;;;;;;;;;;5102579;28;20216;-68
2022/05/17 03:09:05;;;;;;;8.30;3.90;;;;;;;;;;5102738;28;20230;-68
2022/05/17 03:11:32;;;;;;;3.45;3.17;;;;;;;;;;5102725;28;20249;-68
2022/05/17 03:13:58;;;;;;;3.42;3.17;;;;;;;;;;5102899;28;20426;-68
2022/05/17 03:16:28;;;;;;;6.75;3.25;;;;;;;;;;5102550;28;20199;-68
2022/05/17 03:18:54;;;;;;;6.32;3.42;;;;;;;;;;5102752;28;20191;-68
2022/05/17 03:21:22;;;;;;;4.60;3.22;;;;;;;;;;5102571;28;20270;-68
2022/05/17 03:23:48;;;;;;;3.95;3.05;;;;;;;;;;5102478;28;20195;-68
2022/05/17 03:26:14;;;;;;;4.93;3.67;;;;;;;;;;5102126;28;20199;-68
2022/05/17 03:28:41;;;;;;;3.30;3.00;;;;;;;;;;5102640;28;20508;-68
2022/05/17 03:31:07;;;;;;;7.30;3.60;;;;;;;;;;5102572;28;20503;-68
2022/05/17 03:33:34;;;;;;;4.60;3.33;;;;;;;;;;5102438;28;20221;-68
2022/05/17 03:36:00;;;;;;;4.05;3.45;;;;;;;;;;5102166;28;20203;-68
2022/05/17 03:38:27;;;;;;;5.38;3.90;;;;;;;;;;5102060;28;20554;-68
2022/05/17 03:40:54;;;;;;;4.40;3.40;;;;;;;;;;5102560;28;20270;-68
2022/05/17 03:43:20;;;;;;;3.70;3.40;;;;;;;;;;5102319;28;20202;-68
2022/05/17 03:45:47;;;;;;;3.80;3.40;;;;;;;;;;5102302;28;20270;-68
2022/05/17 03:48:13;;;;;;;3.20;3.05;;;;;;;;;;5103019;28;20198;-68
2022/05/17 03:50:40;;;;;;;4.07;3.40;;;;;;;;;;5106439;28;20376;-68
2022/05/17 03:53:06;;;;;;;6.32;3.42;;;;;;;;;;5106359;28;20199;-68
2022/05/17 03:55:34;;;;;;;3.30;3.00;;;;;;;;;;5106306;28;20195;-68
2022/05/17 03:58:00;;;;;;;3.40;3.00;;;;;;;;;;5106459;28;20549;-68
2022/05/17 04:00:26;;;;;;;5.05;3.50;;;;;;;;;;5106427;28;20191;-68
2022/05/17 04:02:53;;;;;;;3.92;3.38;;;;;;;;;;5106437;28;20203;-68
2022/05/17 04:05:19;;;;;;;4.13;3.70;;;;;;;;;;5105971;28;20215;-68
2022/05/17 04:07:45;;;;;;;8.32;3.70;;;;;;;;;;5105966;28;20198;-68
2022/05/17 04:10:13;;;;;;;4.55;3.47;;;;;;;;;;5105973;28;20233;-68
2022/05/17 04:12:40;;;;;;;4.90;4.05;;;;;;;;;;5106113;28;20195;-68
2022/05/17 04:15:08;;;;;;;8.55;4.15;;;;;;;;;;5106085;28;20414;-68
2022/05/17 04:17:34;;;;;;;6.30;4.22;;;;;;;;;;5105591;28;20219;-68
2022/05/17 04:20:01;;;;;;;5.50;3.92;;;;;;;;;;5105884;28;20226;-68
2022/05/17 04:22:27;;;;;;;5.18;4.68;;;;;;;;;;5106064;28;20495;-68
2022/05/17 04:24:54;;;;;;;6.10;3.88;;;;;;;;;;5106099;28;20491;-68
2022/05/17 04:27:20;;;;;;;7.45;4.30;;;;;;;;;;5105612;28;20192;-68
2022/05/17 04:29:47;;;;;;;6.03;4.00;;;;;;;;;;5106142;28;20196;-68
2022/05/17 04:32:14;;;;;;;5.85;3.70;;;;;;;;;;5105715;28;20192;-68
2022/05/17 04:34:40;;;;;;;5.35;3.90;;;;;;;;;;5105603;28;20203;-68
2022/05/17 04:37:07;;;;;;;5.50;4.40;;;;;;;;;;5105556;28;20202;-68
2022/05/17 04:39:33;;;;;;;4.78;3.67;;;;;;;;;;5105433;28;20199;-68
2022/05/17 04:42:00;;;;;;;5.53;3.60;;;;;;;;;;5105668;28;20199;-68
2022/05/17 04:44:26;;;;;;;3.72;3.42;;;;;;;;;;5105506;28;20196;-68
2022/05/17 04:46:54;;;;;;;5.60;4.00;;;;;;;;;;5105207;28;20195;-68
2022/05/17 04:49:20;;;;;;;6.07;3.85;;;;;;;;;;5105199;28;20196;-68
2022/05/17 04:51:50;;;;;;;10.05;4.32;;;;;;;;;;5105742;28;20210;-68
2022/05/17 04:54:16;;;;;;;5.72;3.83;;;;;;;;;;5105406;28;20503;-68
2022/05/17 04:56:42;;;;;;;5.25;4.47;;;;;;;;;;5105133;28;20421;-68
2022/05/17 04:59:09;;;;;;;6.32;4.75;;;;;;;;;;5105104;28;20290;-69
2022/05/17 05:01:35;;;;;;;7.43;5.28;;;;;;;;;;5105711;28;20207;-68
2022/05/17 05:04:03;;;;;;;5.28;4.75;;;;;;;;;;5104966;28;20204;-68
2022/05/17 05:06:30;;;;;;;8.27;4.35;;;;;;;;;;5104922;28;20243;-68
2022/05/17 05:08:57;;;;;;;10.80;5.03;;;;;;;;;;5105344;28;20212;-69
2022/05/17 05:11:23;;;;;;;4.63;4.32;;;;;;;;;;5105068;28;20200;-69
2022/05/17 05:13:49;;;;;;;8.07;4.60;;;;;;;;;;5105009;28;20204;-68
2022/05/17 05:16:16;;;;;;;7.57;4.50;;;;;;;;;;5104530;28;20432;-68
2022/05/17 05:18:43;;;;;;;4.43;4.03;;;;;;;;;;5103996;28;20280;-69
2022/05/17 05:21:12;;;;;;;7.50;4.43;;;;;;;;;;5093821;28;20414;-69
2022/05/17 05:23:38;;;;;;;8.23;4.90;;;;;;;;;;5093218;28;20555;-68
2022/05/17 05:26:05;;;;;;;7.93;4.85;;;;;;;;;;5092005;28;20189;-68
2022/05/17 05:28:32;;;;;;;10.05;4.32;;;;;;;;;;5084100;28;20192;-68
2022/05/17 05:30:59;;;;;;;5.95;4.68;;;;;;;;;;5084233;28;20377;-68
2022/05/17 05:33:25;;;;;;;5.32;4.75;;;;;;;;;;5083000;28;20196;-68
2022/05/17 05:35:51;;;;;;;6.85;4.82;;;;;;;;;;5095140;28;20223;-69
2022/05/17 05:38:19;;;;;;;8.57;5.18;;;;;;;;;;5104084;28;20294;-68
2022/05/17 05:40:46;;;;;;;8.35;4.80;;;;;;;;;;5104091;28;20196;-68
2022/05/17 05:43:12;;;;;;;8.10;5.22;;;;;;;;;;5104192;28;20492;-68
2022/05/17 05:45:39;;;;;;;7.40;4.78;;;;;;;;;;5103921;28;20200;-68
2022/05/17 05:48:06;;;;;;;6.10;4.75;;;;;;;;;;5104153;28;20192;-68
2022/05/17 05:50:32;;;;;;;5.47;4.18;;;;;;;;;;5104028;28;20210;-68
2022/05/17 05:52:59;;;;;;;13.00;4.45;;;;;;;;;;5104056;28;20495;-68
2022/05/17 05:55:27;;;;;;;6.72;4.30;;;;;;;;;;5103889;28;20203;-68
2022/05/17 05:57:53;;;;;;;4.95;4.45;;;;;;;;;;5103378;28;20212;-68
2022/05/17 06:00:21;;;;;;;6.13;4.40;;;;;;;;;;5103723;28;20199;-68
2022/05/17 06:02:47;;;;;;;6.55;5.13;;;;;;;;;;5103829;28;20204;-68
2022/05/17 06:05:14;;;;;;;5.95;4.50;;;;;;;;;;5103907;28;20535;-68
2022/05/17 06:07:40;;;;;;;6.03;4.60;;;;;;;;;;5103511;28;20199;-68
2022/05/17 06:10:08;;;;;;;6.93;5.38;;;;;;;;;;5103704;28;20200;-68
2022/05/17 06:12:35;;;;;;;9.38;4.75;;;;;;;;;;5102943;28;20202;-68
2022/05/17 06:15:02;;;;;;;10.57;4.72;;;;;;;;;;5103714;28;20383;-68
2022/05/17 06:17:28;;;;;;;6.13;5.10;;;;;;;;;;5103267;28;20219;-68
2022/05/17 06:19:55;;;;;;;7.22;5.20;;;;;;;;;;5103432;28;20234;-68
2022/05/17 06:22:21;;;;;;;6.53;5.43;;;;;;;;;;5103398;28;20199;-68
2022/05/17 06:24:48;;;;;;;9.05;5.60;;;;;;;;;;5103331;28;20223;-68
2022/05/17 06:27:14;;;;;;;6.63;4.97;;;;;;;;;;5103061;28;20204;-68
2022/05/17 06:29:42;;;;;;;8.73;5.57;;;;;;;;;;5103467;28;20499;-69
2022/05/17 06:32:09;;;;;;;7.50;5.07;;;;;;;;;;5103131;28;20196;-68
2022/05/17 06:34:35;;;;;;;8.27;5.10;;;;;;;;;;5103262;28;20437;-68
2022/05/17 06:37:02;;;;;;;7.47;5.80;;;;;;;;;;5102836;28;20395;-68
2022/05/17 06:39:28;;;;;;;5.95;5.22;;;;;;;;;;5103046;28;20281;-68
2022/05/17 06:41:55;;;;;;;6.88;4.80;;;;;;;;;;5102967;28;20202;-68
2022/05/17 06:44:21;;;;;;;7.53;5.60;;;;;;;;;;5102871;28;20203;-68
2022/05/17 06:46:49;;;;;;;5.65;4.90;;;;;;;;;;5102676;28;20196;-68
2022/05/17 06:49:16;;;;;;;12.13;5.55;;;;;;;;;;5102797;28;20199;-68
2022/05/17 06:51:42;;;;;;;9.43;4.97;;;;;;;;;;5102924;28;20202;-68
2022/05/17 06:54:09;;;;;;;5.47;4.90;;;;;;;;;;5102643;28;20195;-68
2022/05/17 06:56:35;;;;;;;6.90;5.03;;;;;;;;;;5102448;28;20192;-68
2022/05/17 06:59:02;;;;;;;8.45;4.55;;;;;;;;;;5102796;28;20246;-68
2022/05/17 07:01:28;;;;;;;9.27;5.13;;;;;;;;;;5102851;28;20207;-68
2022/05/17 07:03:56;;;;;;;11.35;5.03;;;;;;;;;;5102667;28;20204;-68
2022/05/17 07:06:22;;;;;;;8.68;4.90;;;;;;;;;;5102207;28;20261;-68
2022/05/17 07:08:48;;;;;;;6.07;5.50;;;;;;;;;;5102393;28;20500;-68
2022/05/17 07:13:59;;;;;;;9.45;4.57;;;;;;;;;;5102536;28;20230;-68
2022/05/17 07:16:25;;;;;;;7.30;5.28;;;;;;;;;;5102149;28;20201;-68
2022/05/17 07:18:52;;;;;;;7.35;4.90;;;;;;;;;;5102217;28;20242;-68
2022/05/17 07:21:19;;;;;;;4.85;4.53;;;;;;;;;;5102113;28;20424;-68
2022/05/17 07:23:46;;;;;;;6.10;4.68;;;;;;;;;;5101242;28;20203;-68
2022/05/17 07:26:13;;;;;;;5.20;4.38;;;;;;;;;;5101926;28;20203;-68
2022/05/17 07:28:39;;;;;;;10.63;5.00;;;;;;;;;;5102281;28;20489;-68
2022/05/17 07:31:06;;;;;;;10.48;4.90;;;;;;;;;;5102277;28;20196;-68
2022/05/17 07:33:32;;;;;;;6.40;4.65;;;;;;;;;;5102076;28;20196;-68
2022/05/17 07:35:58;;;;;;;5.85;4.85;;;;;;;;;;5101866;28;20207;-68
2022/05/17 07:38:26;;;;;;;5.90;4.93;;;;;;;;;;5102120;28;20223;-68
2022/05/17 07:40:53;;;;;;;13.15;4.70;;;;;;;;;;5085955;28;20257;-69
2022/05/17 07:43:19;;;;;;;10.18;5.38;;;;;;;;;;5093171;28;20224;-69
2022/05/17 07:45:49;;;;;;;7.72;4.68;;;;;;;;;;5095563;28;20219;-69
2022/05/17 07:48:16;;;;;;;8.95;5.00;;;;;;;;;;5095712;28;20218;-69
2022/05/17 07:50:42;;;;;;;7.55;5.50;;;;;;;;;;5095830;28;20559;-69
2022/05/17 07:53:09;;;;;;;8.68;5.30;;;;;;;;;;5095993;28;20211;-70
2022/05/17 07:55:38;;;;;;;7.57;5.30;;;;;;;;;;5099778;28;20203;-69
2022/05/17 07:58:05;;;;;;;11.43;5.50;;;;;;;;;;5097635;28;20274;-68
2022/05/17 08:00:32;;;;;;;7.07;4.43;;;;;;;;;;5095683;28;20279;-69
2022/05/17 08:02:58;;;;;;;11.93;5.53;;;;;;;;;;5095264;28;20541;-69
2022/05/17 08:05:25;;;;;;;14.88;5.93;;;;;;;;;;5095847;28;20393;-69
2022/05/17 08:07:51;;;;;;;8.45;5.32;;;;;;;;;;5095391;28;20207;-69
2022/05/17 08:10:18;;;;;;;11.38;4.93;;;;;;;;;;5095916;28;20231;-69
2022/05/17 08:12:46;;;;;;;9.50;5.00;;;;;;;;;;5095391;28;20208;-69
2022/05/17 08:15:12;;;;;;;5.70;4.82;;;;;;;;;;5096369;28;20223;-69
2022/05/17 08:17:39;;;;;;;7.82;4.75;;;;;;;;;;5096228;28;20199;-69
2022/05/17 08:20:09;;;;;;;7.35;4.60;;;;;;;;;;5096175;28;20220;-69
2022/05/17 08:22:37;;;;;;;7.10;4.65;;;;;;;;;;5101270;28;20191;-68
2022/05/17 08:27:49;;;;;;;7.32;4.47;;;;;;;;;;5101440;28;20236;-68
2022/05/17 08:30:16;;;;;;;3.90;3.50;;;;;;;;;;5101222;28;20191;-68
2022/05/17 08:35:38;;;;;;;8.43;3.83;;;;;;;;;;5104249;28;20568;-68
2022/05/17 08:38:04;;;;;;;8.13;4.05;;;;;;;;;;5105118;28;20306;-68
2022/05/17 08:40:31;;;;;;;5.50;3.38;;;;;;;;;;5105126;28;20219;-68
2022/05/17 08:43:08;;;;;;;3.53;3.22;;;;;;;;;;5105643;28;20200;-68
2022/05/17 08:45:39;;;;;;;6.32;3.33;;;;;;;;;;5105692;28;20428;-68
2022/05/17 08:48:08;;;;;;;4.35;3.40;;;;;;;;;;5105290;28;20204;-68
2022/05/17 08:50:37;;;;;;;8.45;3.80;;;;;;;;;;5105393;28;20196;-69
2022/05/17 08:53:04;;;;;;;5.97;3.33;;;;;;;;;;5105178;28;20204;-68
2022/05/17 08:55:31;;;;;;;5.97;3.58;;;;;;;;;;5105344;28;20325;-68
2022/05/17 08:57:59;;;;;;;6.75;3.40;;;;;;;;;;5104971;28;20203;-68
2022/05/17 09:00:30;;;;;;;9.25;3.40;;;;;;;;;;5105186;28;20219;-68
2022/05/17 09:02:58;;;;;;;3.00;2.78;;;;;;;;;;5105102;28;20203;-69
2022/05/17 09:05:30;;;;;;;7.13;3.03;;;;;;;;;;5104949;28;20294;-69
2022/05/17 09:08:00;;;;;;;6.57;2.60;;;;;;;;;;5105127;28;20372;-69
2022/05/17 09:10:31;;;;;;;4.43;2.53;;;;;;;;;;5104982;28;20192;-69
2022/05/17 09:12:59;;;;;;;5.40;2.90;;;;;;;;;;5105054;28;20199;-68
2022/05/17 09:15:27;;;;;;;3.95;2.70;;;;;;;;;;5104914;28;20203;-68
2022/05/17 09:17:54;;;;;;;3.53;2.55;;;;;;;;;;5104500;28;20513;-69
2022/05/17 09:20:21;;;;;;;2.80;2.47;;;;;;;;;;5104977;28;20570;-68
2022/05/17 09:22:48;;;;;;;4.88;2.60;;;;;;;;;;5105006;28;20503;-69
2022/05/17 09:25:15;;;;;;;3.30;2.40;;;;;;;;;;5104682;28;20200;-69
2022/05/17 09:27:42;;;;;;;3.10;2.63;;;;;;;;;;5104487;28;20421;-69
2022/05/17 09:30:11;;;;;;;5.18;2.63;;;;;;;;;;5104597;28;20199;-63
2022/05/17 09:32:42;;;;;;;3.28;2.45;;;;;;;;;;5104498;28;20540;-63
2022/05/17 09:35:11;;;;;;;4.72;2.40;;;;;;;;;;5099379;28;20266;-64
2022/05/17 09:37:38;;;;;;;3.05;2.47;;;;;;;;;;5092542;28;20208;-63
2022/05/17 09:40:06;;;;;;;6.82;2.88;;;;;;;;;;5098159;28;20219;-63
2022/05/17 09:42:34;;;;;;;5.95;2.65;;;;;;;;;;5098567;28;20215;-63
2022/05/17 09:45:02;;;;;;;5.50;2.17;;;;;;;;;;5098466;28;20518;-63
2022/05/17 09:47:29;;;;;;;5.30;2.97;;;;;;;;;;5097416;28;20285;-63
2022/05/17 09:52:45;;;;;;;5.32;2.50;;;;;;;;;;5098550;28;20274;-63
2022/05/17 09:55:18;;;;;;;5.95;2.90;;;;;;;;;;5098400;28;20212;-63
2022/05/17 09:57:54;;;;;;;2.33;2.13;;;;;;;;;;5098072;28;20207;-63
2022/05/17 10:00:25;;;;;;;4.35;2.22;;;;;;;;;;5098748;28;20234;-63
2022/05/17 10:02:52;;;;;;;2.47;2.20;;;;;;;;;;5098834;28;20549;-63
2022/05/17 10:05:23;;;;;;;4.47;2.45;;;;;;;;;;5098648;28;20323;-63
2022/05/17 10:07:51;;;;;;;4.82;2.50;;;;;;;;;;5098456;28;20248;-63
2022/05/17 10:10:29;;;;;;;3.85;2.17;;;;;;;;;;5098136;28;20204;-63
2022/05/17 10:12:57;;;;;;;4.95;2.17;;;;;;;;;;5098020;28;20222;-63
2022/05/17 10:15:26;;;;;;;9.60;2.50;;;;;;;;;;5097869;28;20206;-63
2022/05/17 10:17:55;;;;;;;3.97;1.95;;;;;;;;;;5097544;28;20224;-63
2022/05/17 10:20:26;;;;;;;3.17;1.83;;;;;;;;;;5097776;28;20223;-63
2022/05/17 10:22:56;;;;;;;3.50;2.10;;;;;;;;;;5097676;28;20207;-63
2022/05/17 10:25:25;;;;;;;3.42;2.42;;;;;;;;;;5097641;28;20466;-63
2022/05/17 10:27:54;;;;;;;6.00;2.60;;;;;;;;;;5097447;28;20249;-63
2022/05/17 10:30:22;;;;;;;4.68;2.40;;;;;;;;;;5097721;28;20207;-63
2022/05/17 10:32:51;;;;;;;4.35;2.30;;;;;;;;;;5097756;28;20215;-63
2022/05/17 10:35:18;;;;;;;3.88;2.10;;;;;;;;;;5097999;28;20212;-63
2022/05/17 10:37:49;;;;;;;2.35;2.15;;;;;;;;;;5097910;28;20438;-63
2022/05/17 10:40:17;;;;;;;3.20;2.20;;;;;;;;;;5098037;28;20223;-64
2022/05/17 10:42:44;;;;;;;2.47;2.22;;;;;;;;;;5098766;28;20232;-63
2022/05/17 10:45:11;;;;;;;3.17;2.03;;;;;;;;;;5099636;28;20214;-64
2022/05/17 10:47:48;;;;;;;6.97;2.28;;;;;;;;;;5097777;28;20229;-63
2022/05/17 10:50:22;;;;;;;3.72;2.22;;;;;;;;;;5097586;28;20210;-63
2022/05/17 10:52:56;;;;;;;2.30;2.15;;;;;;;;;;5097155;28;20206;-63
2022/05/17 10:55:27;;;;;;;2.13;2.00;;;;;;;;;;5098950;28;20214;-63
2022/05/17 10:57:55;;;;;;;4.63;2.25;;;;;;;;;;5097726;28;20278;-63
2022/05/17 11:00:24;;;;;;;3.22;1.90;;;;;;;;;;5096896;28;20227;-63
2022/05/17 11:02:58;;;;;;;4.53;2.50;;;;;;;;;;5096971;28;20215;-63
2022/05/17 11:05:29;;;;;;;2.13;2.03;;;;;;;;;;5096856;28;20407;-63
2022/05/17 11:08:02;;;;;;;6.47;1.85;;;;;;;;;;5096680;28;20211;-63
2022/05/17 11:10:36;;;;;;;4.15;1.90;;;;;;;;;;5096992;28;20203;-63
2022/05/17 11:13:08;;;;;;;3.22;2.30;;;;;;;;;;5097216;28;20213;-63
2022/05/17 11:15:36;;;;;;;4.05;2.38;;;;;;;;;;5097440;28;20465;-63
2022/05/17 11:18:07;;;;;;;1.98;1.88;;;;;;;;;;5096936;28;20285;-63
2022/05/17 11:20:36;;;;;;;2.90;2.08;;;;;;;;;;5097277;28;20230;-63
2022/05/17 11:23:12;;;;;;;3.40;1.88;;;;;;;;;;5097135;28;20207;-63
2022/05/17 11:25:48;;;;;;;3.00;2.10;;;;;;;;;;5096847;28;20452;-63
2022/05/17 11:28:33;;;;;;;7.10;1.75;;;;;;;;;;5096778;28;20210;-63
2022/05/17 11:31:01;;;;;;;2.53;2.20;;;;;;;;;;5096924;28;20234;-63
2022/05/17 11:33:30;;;;;;;2.42;1.90;;;;;;;;;;5096619;28;20207;-63
2022/05/17 11:35:57;;;;;;;5.22;1.52;;;;;;;;;;5096689;28;20214;-63
2022/05/17 11:38:38;;;;;;;2.08;1.88;;;;;;;;;;5096425;28;20567;-63
2022/05/17 11:41:09;;;;;;;4.85;2.00;;;;;;;;;;5096523;28;20218;-63
2022/05/17 11:43:43;;;;;;;3.63;1.98;;;;;;;;;;5096715;28;20215;-63
2022/05/17 11:46:42;;;;;;;4.43;1.92;;;;;;;;;;5096138;28;20214;-63
2022/05/17 11:49:25;;;;;;;3.05;2.03;;;;;;;;;;5033921;28;20216;-63
2022/05/17 11:52:13;;;;;;;5.00;1.95;;;;;;;;;;5033969;28;20212;-63
2022/05/17 11:54:44;;;;;;;4.97;1.75;;;;;;;;;;5077102;28;20214;-63
2022/05/17 11:57:12;;;;;;;4.03;2.10;;;;;;;;;;5095866;28;20246;-63
2022/05/17 11:59:42;;;;;;;3.25;2.13;;;;;;;;;;5096271;28;20230;-63
2022/05/17 12:02:09;;;;;;;2.55;1.83;;;;;;;;;;5096518;28;20206;-63
2022/05/17 12:04:39;;;;;;;4.95;1.83;;;;;;;;;;5096241;28;20207;-63
2022/05/17 12:07:22;;;;;;;2.85;1.67;;;;;;;;;;5095777;28;20445;-63
2022/05/17 12:09:50;;;;;;;3.17;1.60;;;;;;;;;;5098154;28;20769;-63
2022/05/17 12:12:35;;;;;;;2.88;1.52;;;;;;;;;;5100554;28;20211;-63
2022/05/17 12:15:09;;;;;;;3.15;1.63;;;;;;;;;;5100060;28;20502;-63
2022/05/17 12:17:37;;;;;;;2.42;1.25;;;;;;;;;;5099400;28;20206;-63
2022/05/17 12:20:06;;;;;;;1.10;1.00;;;;;;;;;;5099606;28;20245;-63
2022/05/17 12:22:37;;;;;;;1.05;0.95;;;;;;;;;;5099417;28;20214;-63
2022/05/17 12:25:08;;;;;;;1.27;1.17;;;;;;;;;;5099435;28;20244;-64
2022/05/17 12:27:35;;;;;;;2.75;1.20;;;;;;;;;;5098822;28;20214;-63
2022/05/17 12:32:51;;;;;;;1.10;1.10;;;;;;;;;;5099830;28;20248;-63
2022/05/17 12:35:23;;;;;;;1.30;0.88;;;;;;;;;;5099436;28;20519;-63
2022/05/17 12:37:49;;;;;;;1.60;0.90;;;;;;;;;;5099288;28;20238;-63
2022/05/17 12:43:06;;;;;;;0.90;0.90;;;;;;;;;;5099467;28;20205;-63
2022/05/17 12:45:33;;;;;;;2.90;1.13;;;;;;;;;;5099190;28;20572;-63
2022/05/17 12:48:03;;;;;;;2.35;0.95;;;;;;;;;;5089371;28;20204;-63
2022/05/17 12:50:38;;;;;;;1.98;0.82;;;;;;;;;;5088681;28;20290;-63
2022/05/17 12:53:10;;;;;;;1.30;1.00;;;;;;;;;;5087966;28;20207;-63
2022/05/17 12:55:36;;;;;;;5.07;1.30;;;;;;;;;;5090064;28;20218;-63
2022/05/17 12:58:08;;;;;;;1.48;1.08;;;;;;;;;;5087465;28;20211;-63
2022/05/17 13:00:35;;;;;;;2.60;1.10;;;;;;;;;;5087635;28;20230;-64
2022/05/17 13:03:04;;;;;;;1.05;0.93;;;;;;;;;;5086294;28;20211;-64
2022/05/17 13:05:31;;;;;;;4.40;0.85;;;;;;;;;;5078158;28;20223;-64
2022/05/17 13:08:02;;;;;;;2.28;0.80;;;;;;;;;;5078271;28;20683;-64
2022/05/17 13:10:28;;;;;;;1.58;0.80;;;;;;;;;;5078326;28;20204;-64
2022/05/17 13:12:54;;;;;;;1.40;0.60;;;;;;;;;;5078512;28;20208;-64
2022/05/17 13:15:21;;;;;;;0.82;0.60;;;;;;;;;;5078062;28;20215;-64
2022/05/17 13:17:51;;;;;;;1.27;1.17;;;;;;;;;;5077757;28;20530;-64
2022/05/17 13:20:21;;;;;;;1.77;0.85;;;;;;;;;;5077483;28;20239;-63
2022/05/17 13:22:51;;;;;;;1.25;0.82;;;;;;;;;;5077517;28;20208;-63
2022/05/17 13:25:19;;;;;;;3.38;0.80;;;;;;;;;;5078078;28;20223;-63
2022/05/17 13:27:46;;;;;;;2.25;0.90;;;;;;;;;;5077617;28;20200;-63
2022/05/17 13:30:23;;;;;;;1.83;1.02;;;;;;;;;;5077985;28;20516;-63
2022/05/17 13:32:50;;;;;;;0.80;0.80;;;;;;;;;;5078076;28;20446;-63
2022/05/17 13:35:19;;;;;;;2.13;0.88;;;;;;;;;;5077849;28;20226;-63
2022/05/17 13:37:56;;;;;;;1.67;0.90;;;;;;;;;;5077817;28;20215;-63
2022/05/17 13:40:38;;;;;;;1.00;0.90;;;;;;;;;;5078384;28;20246;-63
2022/05/17 13:43:18;;;;;;;3.33;1.10;;;;;;;;;;5077638;28;20208;-63
2022/05/17 13:45:56;;;;;;;2.60;0.77;;;;;;;;;;5078159;28;20207;-63
2022/05/17 13:48:22;;;;;;;0.80;0.80;;;;;;;;;;5078525;28;20230;-63
2022/05/17 13:50:52;;;;;;;0.90;0.90;;;;;;;;;;5078298;28;20214;-63
2022/05/17 13:53:19;;;;;;;1.33;0.90;;;;;;;;;;5078077;28;20215;-63
2022/05/17 13:55:46;;;;;;;2.83;1.10;;;;;;;;;;5077818;28;20387;-63
2022/05/17 13:58:13;;;;;;;3.67;1.00;;;;;;;;;;5076930;28;20449;-71
2022/05/17 14:00:43;;;;;;;3.83;0.93;;;;;;;;;;5078025;28;20224;-70
2022/05/17 14:03:17;;;;;;;0.77;0.77;;;;;;;;;;5077820;28;20540;-71
2022/05/17 14:05:55;;;;;;;1.98;0.73;;;;;;;;;;5077311;28;20546;-70
2022/05/17 14:13:57;;;;;;;1.95;1.10;;;;;;;;;;5097096;28;20422;-70
2022/05/17 14:16:24;;;;;;;1.45;1.15;;;;;;;;;;5096913;28;20230;-70
2022/05/17 14:18:51;;;;;;;2.22;0.98;;;;;;;;;;5096478;28;20472;-70
2022/05/17 14:21:19;;;;;;;2.42;1.25;;;;;;;;;;5097249;28;20227;-70
2022/05/17 14:23:48;;;;;;;1.58;0.95;;;;;;;;;;5097018;28;20399;-70
2022/05/17 14:26:15;;;;;;;1.45;1.15;;;;;;;;;;5096206;28;20214;-70
2022/05/17 14:28:41;;;;;;;3.90;1.17;;;;;;;;;;5096995;28;20207;-70
2022/05/17 14:31:12;;;;;;;0.93;0.90;;;;;;;;;;5096892;28;20519;-72
2022/05/17 14:33:38;;;;;;;0.82;0.82;;;;;;;;;;5096574;28;20212;-71
2022/05/17 14:36:05;;;;;;;2.63;1.00;;;;;;;;;;5096381;28;20238;-70
2022/05/17 14:38:32;;;;;;;3.22;1.20;;;;;;;;;;5096857;28;20410;-71
2022/05/17 14:40:59;;;;;;;1.10;0.80;;;;;;;;;;5096193;28;20223;-71
2022/05/17 14:43:25;;;;;;;0.75;0.75;;;;;;;;;;5093997;28;20493;-71
2022/05/17 14:45:54;;;;;;;0.80;0.80;;;;;;;;;;5100094;28;20207;-71
2022/05/17 14:48:22;;;;;;;3.03;0.75;;;;;;;;;;5099877;28;20306;-71
2022/05/17 14:50:48;;;;;;;2.65;0.88;;;;;;;;;;5100510;28;20206;-71
2022/05/17 14:53:15;;;;;;;1.63;1.08;;;;;;;;;;5100162;28;20200;-70
2022/05/17 14:55:42;;;;;;;4.03;1.00;;;;;;;;;;5099881;28;20203;-71
2022/05/17 14:58:09;;;;;;;2.53;1.33;;;;;;;;;;5099722;28;20203;-72
2022/05/17 15:00:36;;;;;;;2.88;1.00;;;;;;;;;;5099563;28;20307;-71
2022/05/17 15:03:04;;;;;;;1.98;1.05;;;;;;;;;;5099436;28;20203;-71
2022/05/17 15:05:31;;;;;;;3.60;1.13;;;;;;;;;;5099531;28;20307;-71
2022/05/17 15:07:57;;;;;;;1.83;1.00;;;;;;;;;;5099142;28;20529;-70
2022/05/17 15:10:25;;;;;;;2.42;0.90;;;;;;;;;;5099605;28;20206;-71
2022/05/17 15:12:53;;;;;;;2.72;1.38;;;;;;;;;;5099427;28;20207;-71
2022/05/17 15:15:20;;;;;;;1.10;1.00;;;;;;;;;;5099630;28;20490;-70
2022/05/17 15:17:54;;;;;;;2.05;1.15;;;;;;;;;;5099773;28;20217;-71